New Hradec, North Dakota
Current Conditions -  °F | °C
As of 4:56 AM on Saturday 25 Oct 2014 (Local Time) from KDIK Reporting Station
Broken Clouds Broken Clouds  
Wind Chill: 43°   Ceiling: 12000
Heat Index: 45°   Visibility: 10mi
Dew Point: 30°   Wind: 5mph
Humidity: 56%   Direction: 300°WNW
Pressure: 30.09"   Gusts: NA
Location:  46.9271°N, 102.754°W
Report Text: KDIK 251056Z AUTO 30004KT 10SM BKN120 07/M01 A3009 RMK AO2 SLP194 T00721011
Loading
Personal Weather Stations






























Interactive Weather Map
Tropical Storm Tracking
New forecast layout! Learn more

10-Day Weather Forecast

Advertisements
Track Severe Weather on mobile